createdAt,value
2022-11-13T00:01:26.655Z,6.22
2022-11-13T00:04:12.852Z,6.68
2022-11-13T00:06:59.559Z,5.93
2022-11-13T00:09:45.468Z,6.45
2022-11-13T00:12:31.261Z,6.22
2022-11-13T00:15:16.682Z,6.07
2022-11-13T00:18:03.080Z,6.22
2022-11-13T00:20:48.897Z,5.82
2022-11-13T00:23:35.355Z,6.38
2022-11-13T00:26:22.469Z,5.22
2022-11-13T00:29:09.231Z,6.55
2022-11-13T00:31:54.688Z,6.03
2022-11-13T00:34:47.473Z,5.55
2022-11-13T00:37:33.547Z,6.22
2022-11-13T00:40:18.911Z,5.40
2022-11-13T00:43:04.563Z,6.78
2022-11-13T00:45:50.453Z,7.50
2022-11-13T00:48:36.653Z,6.10
2022-11-13T00:51:22.741Z,5.97
2022-11-13T00:54:08.141Z,6.45
2022-11-13T00:56:53.978Z,7.25
2022-11-13T00:59:39.291Z,8.98
2022-11-13T01:02:24.967Z,6.28
2022-11-13T01:05:10.804Z,6.72
2022-11-13T01:07:56.086Z,7.75
2022-11-13T01:10:52.953Z,6.95
2022-11-13T01:13:44.223Z,9.43
2022-11-13T01:16:30.088Z,6.72
2022-11-13T01:19:15.916Z,8.18
2022-11-13T01:22:01.302Z,7.43
2022-11-13T01:24:46.766Z,6.68
2022-11-13T01:27:32.378Z,15.73
2022-11-13T01:30:18.335Z,7.68
2022-11-13T01:33:03.885Z,5.75
2022-11-13T01:35:49.286Z,8.75
2022-11-13T01:38:36.822Z,7.75
2022-11-13T01:41:29.040Z,6.72
2022-11-13T01:44:16.583Z,7.00
2022-11-13T01:47:03.927Z,7.00
2022-11-13T01:49:53.197Z,5.95
2022-11-13T01:52:41.292Z,6.15
2022-11-13T01:55:27.303Z,9.43
2022-11-13T01:58:13.876Z,6.45
2022-11-13T02:00:59.604Z,7.28
2022-11-13T02:03:45.517Z,7.00
2022-11-13T02:06:41.171Z,7.03
2022-11-13T02:09:39.467Z,7.07
2022-11-13T02:12:42.485Z,6.97
2022-11-13T02:15:31.010Z,6.35
2022-11-13T02:18:18.341Z,5.65
2022-11-13T02:21:28.846Z,6.63
2022-11-13T02:24:29.438Z,6.00
2022-11-13T02:27:37.304Z,7.47
2022-11-13T02:30:27.445Z,5.93
2022-11-13T02:33:21.229Z,7.30
2022-11-13T02:36:09.882Z,8.20
2022-11-13T02:38:58.018Z,5.93
2022-11-13T02:41:43.192Z,5.72
2022-11-13T02:44:28.851Z,6.65
2022-11-13T02:47:14.400Z,5.80
2022-11-13T02:50:00.405Z,6.38
2022-11-13T02:52:46.052Z,5.07
2022-11-13T02:55:31.501Z,5.40
2022-11-13T02:58:16.829Z,5.63
2022-11-13T03:01:03.589Z,5.63
2022-11-13T03:03:57.480Z,6.60
2022-11-13T03:06:43.386Z,7.97
2022-11-13T03:09:29.024Z,5.32
2022-11-13T03:12:14.443Z,4.63
2022-11-13T03:14:59.954Z,5.13
2022-11-13T03:17:45.504Z,5.97
2022-11-13T03:20:31.275Z,5.25
2022-11-13T03:23:17.044Z,4.80
2022-11-13T03:26:07.282Z,6.40
2022-11-13T03:28:52.628Z,5.43
2022-11-13T03:31:38.140Z,5.10
2022-11-13T03:34:23.660Z,8.48
2022-11-13T03:37:09.271Z,5.30
2022-11-13T03:39:54.898Z,5.88
2022-11-13T03:42:40.564Z,4.53
2022-11-13T03:45:26.000Z,4.45
2022-11-13T03:48:12.021Z,4.53
2022-11-13T03:50:57.916Z,7.43
2022-11-13T03:53:43.766Z,4.47
2022-11-13T03:56:29.156Z,5.25
2022-11-13T03:59:14.810Z,6.10
2022-11-13T04:02:00.710Z,5.15
2022-11-13T04:04:46.171Z,8.85
2022-11-13T04:07:31.938Z,7.70
2022-11-13T04:10:17.754Z,6.82
2022-11-13T04:13:03.508Z,6.35
2022-11-13T04:15:49.360Z,5.90
2022-11-13T04:18:34.701Z,7.93
2022-11-13T04:21:20.252Z,6.20
2022-11-13T04:24:05.664Z,5.05
2022-11-13T04:26:51.408Z,4.90
2022-11-13T04:29:37.108Z,4.65
2022-11-13T04:32:22.693Z,5.25
2022-11-13T04:35:09.208Z,4.63
2022-11-13T04:37:54.895Z,6.47
2022-11-13T04:40:40.852Z,5.72
2022-11-13T04:43:26.281Z,5.20
2022-11-13T04:46:11.779Z,4.75
2022-11-13T04:48:57.493Z,4.20
2022-11-13T04:51:42.879Z,5.28
2022-11-13T04:54:29.139Z,5.55
2022-11-13T04:57:14.681Z,5.38
2022-11-13T05:00:00.135Z,4.60
2022-11-13T05:02:45.752Z,5.53
2022-11-13T05:05:31.507Z,4.72
2022-11-13T05:08:16.785Z,5.68
2022-11-13T05:11:03.590Z,5.25
2022-11-13T05:13:49.183Z,4.65
2022-11-13T05:16:37.562Z,5.30
2022-11-13T05:19:23.596Z,5.43
2022-11-13T05:22:09.788Z,4.47
2022-11-13T05:24:55.088Z,5.65
2022-11-13T05:27:40.526Z,5.88
2022-11-13T05:30:26.390Z,5.47
2022-11-13T05:33:11.962Z,5.75
2022-11-13T05:36:02.532Z,5.07
2022-11-13T05:38:48.167Z,4.45
2022-11-13T05:41:33.724Z,5.30
2022-11-13T05:44:19.555Z,5.00
2022-11-13T05:47:05.259Z,5.68
2022-11-13T05:49:51.068Z,7.10
2022-11-13T05:52:36.693Z,7.07
2022-11-13T05:55:23.610Z,5.57
2022-11-13T05:58:09.371Z,6.20
2022-11-13T06:00:55.093Z,5.63
2022-11-13T06:03:40.934Z,5.95
2022-11-13T06:06:27.708Z,6.50
2022-11-13T06:09:17.398Z,5.15
2022-11-13T06:12:02.536Z,5.20
2022-11-13T06:14:48.213Z,5.32
2022-11-13T06:17:33.758Z,5.50
2022-11-13T06:20:19.245Z,6.72
2022-11-13T06:23:04.678Z,7.45
2022-11-13T06:25:50.049Z,5.03
2022-11-13T06:28:36.347Z,4.68
2022-11-13T06:31:23.660Z,4.70
2022-11-13T06:34:09.338Z,4.68
2022-11-13T06:36:54.992Z,6.10
2022-11-13T06:39:40.691Z,5.32
2022-11-13T06:42:27.025Z,5.05
2022-11-13T06:45:13.030Z,5.00
2022-11-13T06:47:58.412Z,5.28
2022-11-13T06:50:48.266Z,5.55
2022-11-13T06:53:34.716Z,4.88
2022-11-13T06:56:20.548Z,5.03
2022-11-13T06:59:08.496Z,4.78
2022-11-13T07:01:54.356Z,5.85
2022-11-13T07:04:39.747Z,5.05
2022-11-13T07:07:25.185Z,5.32
2022-11-13T07:10:10.792Z,4.95
2022-11-13T07:13:00.217Z,4.65
2022-11-13T07:15:46.167Z,5.53
2022-11-13T07:18:32.765Z,4.82
2022-11-13T07:21:18.968Z,4.50
2022-11-13T07:24:05.208Z,5.22
2022-11-13T07:26:50.518Z,5.20
2022-11-13T07:29:36.633Z,5.28
2022-11-13T07:32:22.073Z,5.57
2022-11-13T07:35:08.017Z,5.72
2022-11-13T07:37:56.641Z,5.90
2022-11-13T07:40:42.436Z,5.47
2022-11-13T07:43:28.530Z,5.78
2022-11-13T07:46:14.110Z,6.18
2022-11-13T07:48:59.540Z,5.60
2022-11-13T07:51:45.001Z,6.47
2022-11-13T07:54:30.231Z,6.47
2022-11-13T07:57:15.635Z,7.07
2022-11-13T08:00:01.397Z,5.97
2022-11-13T08:02:47.889Z,6.28
2022-11-13T08:05:33.639Z,7.20
2022-11-13T08:08:19.305Z,7.80
2022-11-13T08:11:06.835Z,6.82
2022-11-13T08:13:52.652Z,6.55
2022-11-13T08:16:38.187Z,6.35
2022-11-13T08:19:23.688Z,7.32
2022-11-13T08:22:09.151Z,6.22
2022-11-13T08:24:55.127Z,8.10
2022-11-13T08:27:40.915Z,7.93
2022-11-13T08:30:27.963Z,6.32
2022-11-13T08:33:13.326Z,6.88
2022-11-13T08:36:00.639Z,6.97
2022-11-13T08:38:48.242Z,7.10
2022-11-13T08:41:33.554Z,7.93
2022-11-13T08:44:19.154Z,8.57
2022-11-13T08:47:04.818Z,9.18
2022-11-13T08:49:50.198Z,7.80
2022-11-13T08:52:36.037Z,8.07
2022-11-13T08:55:21.369Z,8.38
2022-11-13T08:58:06.689Z,8.98
2022-11-13T09:00:52.425Z,9.15
2022-11-13T09:03:37.987Z,8.60
2022-11-13T09:06:23.398Z,8.65
2022-11-13T09:09:09.082Z,9.45
2022-11-13T09:11:54.703Z,9.52
2022-11-13T09:14:39.895Z,9.13
2022-11-13T09:17:25.494Z,9.63
2022-11-13T09:20:13.795Z,9.07
2022-11-13T09:23:05.530Z,10.13
2022-11-13T09:25:51.163Z,9.65
2022-11-13T09:28:36.873Z,10.95
2022-11-13T09:31:22.247Z,11.60
2022-11-13T09:34:08.560Z,12.15
2022-11-13T09:36:54.694Z,10.40
2022-11-13T09:39:40.267Z,10.60
2022-11-13T09:42:28.792Z,13.13
2022-11-13T09:45:15.727Z,12.75
2022-11-13T09:48:23.826Z,11.32
2022-11-13T09:51:37.291Z,10.77
2022-11-13T09:54:23.623Z,10.68
2022-11-13T09:57:25.731Z,11.35
2022-11-13T10:00:14.156Z,10.50
2022-11-13T10:03:39.553Z,11.05
2022-11-13T10:07:01.255Z,9.05
2022-11-13T10:09:47.441Z,11.02
2022-11-13T10:12:33.747Z,9.75
2022-11-13T10:15:20.639Z,9.88
2022-11-13T10:18:17.460Z,9.65
2022-11-13T10:21:17.854Z,9.73
2022-11-13T10:24:14.373Z,8.90
2022-11-13T10:27:00.428Z,10.60
2022-11-13T10:29:49.152Z,9.93
2022-11-13T10:32:34.876Z,9.52
2022-11-13T10:35:38.464Z,9.95
2022-11-13T10:38:33.853Z,10.23
2022-11-13T10:44:21.310Z,10.82
2022-11-13T10:47:26.407Z,10.18
2022-11-13T10:50:25.209Z,9.63
2022-11-13T10:53:18.798Z,10.43
2022-11-13T10:56:14.568Z,10.32
2022-11-13T10:59:19.690Z,10.00
2022-11-13T11:02:23.356Z,13.57
2022-11-13T11:05:22.557Z,12.45
2022-11-13T11:08:11.487Z,9.32
2022-11-13T11:11:32.658Z,10.38
2022-11-13T11:14:20.878Z,10.02
2022-11-13T11:17:07.908Z,10.10
2022-11-13T11:20:01.701Z,9.93
2022-11-13T11:22:51.760Z,10.05
2022-11-13T11:25:42.127Z,10.02
2022-11-13T11:28:43.303Z,9.63
2022-11-13T11:31:51.784Z,9.50
2022-11-13T11:34:47.675Z,9.10
2022-11-13T11:37:44.521Z,9.05
2022-11-13T11:40:53.426Z,9.73
2022-11-13T11:43:43.736Z,9.35
2022-11-13T11:46:29.911Z,9.38
2022-11-13T11:49:15.702Z,12.75
2022-11-13T11:52:19.584Z,12.20
2022-11-13T11:55:26.552Z,9.90
2022-11-13T11:58:19.730Z,9.43
2022-11-13T12:01:26.740Z,9.60
2022-11-13T12:04:54.286Z,9.52
2022-11-13T12:08:01.755Z,9.63
2022-11-13T12:10:58.162Z,8.95
2022-11-13T12:13:55.304Z,8.95
2022-11-13T12:16:59.264Z,9.38
2022-11-13T12:20:15.302Z,9.25
2022-11-13T12:26:03.269Z,9.82
2022-11-13T12:29:06.681Z,10.48
2022-11-13T12:32:34.879Z,10.30
2022-11-13T12:35:23.925Z,10.05
2022-11-13T12:38:43.634Z,9.63
2022-11-13T12:42:07.644Z,9.45
2022-11-13T12:45:22.217Z,9.20
2022-11-13T12:48:14.831Z,9.20
2022-11-13T12:51:03.664Z,9.18
2022-11-13T12:53:52.334Z,9.13
2022-11-13T12:56:37.883Z,8.75
2022-11-13T12:59:30.473Z,8.88
2022-11-13T13:02:40.125Z,9.55
2022-11-13T13:05:39.515Z,9.52
2022-11-13T13:08:56.319Z,8.45
2022-11-13T13:12:11.260Z,8.50
2022-11-13T13:15:19.144Z,8.82
2022-11-13T13:18:08.928Z,8.73
2022-11-13T13:20:56.915Z,9.18
2022-11-13T13:23:47.973Z,8.98
2022-11-13T13:26:45.931Z,8.27
2022-11-13T13:29:34.323Z,8.57
2022-11-13T13:32:44.338Z,9.98
2022-11-13T13:35:42.941Z,8.98
2022-11-13T13:39:01.959Z,8.82
2022-11-13T13:41:53.663Z,8.57
2022-11-13T13:44:51.675Z,9.20
2022-11-13T13:47:41.417Z,8.82
2022-11-13T13:50:45.228Z,9.88
2022-11-13T13:53:34.251Z,10.38
2022-11-13T13:56:22.157Z,11.23
2022-11-13T13:59:20.304Z,9.95
2022-11-13T14:02:19.869Z,9.10
2022-11-13T14:05:24.794Z,8.75
2022-11-13T14:08:24.543Z,9.23
2022-11-13T14:11:22.503Z,8.90
2022-11-13T14:14:18.207Z,9.65
2022-11-13T14:17:04.021Z,9.00
2022-11-13T14:19:54.150Z,8.60
2022-11-13T14:22:41.494Z,10.65
2022-11-13T14:25:29.149Z,9.13
2022-11-13T14:28:17.265Z,8.65
2022-11-13T14:31:08.808Z,8.75
2022-11-13T14:33:54.473Z,8.77
2022-11-13T14:36:41.071Z,8.50
2022-11-13T14:39:33.475Z,9.07
2022-11-13T14:42:26.757Z,8.80
2022-11-13T14:45:30.391Z,8.48
2022-11-13T14:48:27.785Z,8.68
2022-11-13T14:51:26.372Z,9.32
2022-11-13T14:55:13.615Z,8.95
2022-11-13T14:57:52.950Z,8.77
2022-11-13T15:00:38.881Z,8.27
2022-11-13T15:03:25.655Z,8.60
2022-11-13T15:06:18.706Z,8.70
2022-11-13T15:09:10.082Z,9.10
2022-11-13T15:11:55.711Z,8.93
2022-11-13T15:14:41.808Z,9.50
2022-11-13T15:17:27.750Z,11.65
2022-11-13T15:20:16.564Z,9.15
2022-11-13T15:23:02.243Z,9.13
2022-11-13T15:25:47.732Z,8.82
2022-11-13T15:28:33.211Z,9.93
2022-11-13T15:31:22.301Z,9.88
2022-11-13T15:34:11.547Z,9.57
2022-11-13T15:36:57.259Z,9.82
2022-11-13T15:39:43.025Z,10.23
2022-11-13T15:42:34.717Z,11.20
2022-11-13T15:45:20.587Z,10.85
2022-11-13T15:48:09.550Z,10.85
2022-11-13T15:50:55.186Z,10.57
2022-11-13T15:53:40.877Z,11.07
2022-11-13T15:56:27.215Z,11.18
2022-11-13T15:59:14.182Z,11.15
2022-11-13T16:01:59.906Z,11.40
2022-11-13T16:04:56.032Z,11.68
2022-11-13T16:07:42.658Z,12.00
2022-11-13T16:10:28.537Z,16.48
2022-11-13T16:13:14.145Z,14.88
2022-11-13T16:16:00.743Z,14.55
2022-11-13T16:18:46.666Z,13.32
2022-11-13T16:21:32.417Z,11.95
2022-11-13T16:24:22.614Z,11.77
2022-11-13T16:27:13.277Z,15.85
2022-11-13T16:30:02.385Z,15.63
2022-11-13T16:32:51.945Z,14.13
2022-11-13T16:35:37.814Z,14.00
2022-11-13T16:38:23.442Z,14.13
2022-11-13T16:41:13.604Z,14.63
2022-11-13T16:43:59.368Z,11.48
2022-11-13T16:46:45.849Z,12.23
2022-11-13T16:49:31.556Z,13.05
2022-11-13T16:52:17.482Z,12.85
2022-11-13T16:55:06.514Z,14.05
2022-11-13T16:57:52.518Z,16.17
2022-11-13T17:00:37.916Z,14.15
2022-11-13T17:03:23.759Z,12.70
2022-11-13T17:06:24.176Z,12.43
2022-11-13T17:09:10.316Z,12.48
2022-11-13T17:11:55.693Z,14.15
2022-11-13T17:14:41.441Z,14.05
2022-11-13T17:17:27.044Z,15.13
2022-11-13T17:20:14.149Z,15.13
2022-11-13T17:23:00.420Z,15.35
2022-11-13T17:25:46.069Z,15.45
2022-11-13T17:28:32.115Z,15.55
2022-11-13T17:31:17.464Z,15.60
2022-11-13T17:34:03.143Z,15.68
2022-11-13T17:36:48.853Z,16.08
2022-11-13T17:39:34.267Z,16.55
2022-11-13T17:42:19.916Z,21.90
2022-11-13T17:45:05.647Z,24.35
2022-11-13T17:47:51.566Z,21.15
2022-11-13T17:50:37.213Z,18.30
2022-11-13T17:53:22.738Z,18.25
2022-11-13T17:56:11.683Z,20.95
2022-11-13T17:58:58.362Z,21.00
2022-11-13T18:01:44.702Z,20.35
2022-11-13T18:04:31.618Z,21.10
2022-11-13T18:07:17.383Z,21.95
2022-11-13T18:10:03.458Z,21.33
2022-11-13T18:12:48.974Z,20.58
2022-11-13T18:15:39.011Z,20.77
2022-11-13T18:18:55.004Z,21.23
2022-11-13T18:21:41.969Z,19.58
2022-11-13T18:24:27.488Z,19.00
2022-11-13T18:27:13.695Z,18.38
2022-11-13T18:29:59.074Z,18.02
2022-11-13T18:32:44.384Z,18.23
2022-11-13T18:35:29.669Z,18.52
2022-11-13T18:38:15.371Z,18.30
2022-11-13T18:41:07.563Z,18.60
2022-11-13T18:43:53.168Z,20.05
2022-11-13T18:46:38.593Z,19.67
2022-11-13T18:49:24.181Z,18.40
2022-11-13T18:52:09.954Z,17.88
2022-11-13T18:54:55.213Z,17.30
2022-11-13T18:57:41.042Z,18.15
2022-11-13T19:00:26.469Z,17.90
2022-11-13T19:03:11.874Z,16.92
2022-11-13T19:05:57.447Z,18.60
2022-11-13T19:08:44.254Z,17.88
2022-11-13T19:11:30.965Z,16.15
2022-11-13T19:14:18.149Z,15.73
2022-11-13T19:17:03.490Z,16.85
2022-11-13T19:19:49.373Z,16.90
2022-11-13T19:22:34.714Z,18.08
2022-11-13T19:25:20.085Z,20.63
2022-11-13T19:28:05.832Z,18.77
2022-11-13T19:30:54.708Z,18.00
2022-11-13T19:33:40.871Z,19.50
2022-11-13T19:36:28.313Z,18.25
2022-11-13T19:39:14.140Z,18.25
2022-11-13T19:41:59.502Z,18.00
2022-11-13T19:44:44.863Z,19.48
2022-11-13T19:47:30.376Z,24.00
2022-11-13T19:50:16.567Z,26.67
2022-11-13T19:53:02.322Z,20.85
2022-11-13T19:55:55.323Z,21.48
2022-11-13T19:58:44.378Z,20.10
2022-11-13T20:01:32.177Z,20.67
2022-11-13T20:04:17.935Z,22.50
2022-11-13T20:07:03.041Z,19.13
2022-11-13T20:09:48.358Z,18.40
2022-11-13T20:12:33.820Z,17.90
2022-11-13T20:15:20.950Z,16.73
2022-11-13T20:18:06.403Z,17.00
2022-11-13T20:20:54.683Z,15.65
2022-11-13T20:23:41.418Z,16.85
2022-11-13T20:26:28.132Z,15.85
2022-11-13T20:29:13.774Z,16.20
2022-11-13T20:32:02.108Z,14.57
2022-11-13T20:34:47.517Z,14.65
2022-11-13T20:37:33.963Z,14.85
2022-11-13T20:40:19.707Z,15.23
2022-11-13T20:43:05.120Z,14.57
2022-11-13T20:45:50.737Z,14.15
2022-11-13T20:48:37.058Z,13.82
2022-11-13T20:51:24.844Z,14.50
2022-11-13T20:54:10.175Z,15.90
2022-11-13T20:56:56.212Z,14.15
2022-11-13T20:59:41.803Z,13.88
2022-11-13T21:02:27.323Z,14.70
2022-11-13T21:05:12.937Z,13.95
2022-11-13T21:07:58.167Z,14.98
2022-11-13T21:10:43.852Z,15.43
2022-11-13T21:13:29.914Z,14.35
2022-11-13T21:16:17.640Z,13.48
2022-11-13T21:19:03.403Z,13.88
2022-11-13T21:21:48.666Z,13.40
2022-11-13T21:24:34.268Z,13.32
2022-11-13T21:27:19.667Z,12.73
2022-11-13T21:30:05.798Z,13.68
2022-11-13T21:32:51.301Z,14.38
2022-11-13T21:35:37.039Z,13.10
2022-11-13T21:38:22.706Z,13.95
2022-11-13T21:41:22.061Z,12.25
2022-11-13T21:44:11.491Z,12.25
2022-11-13T21:46:57.023Z,13.20
2022-11-13T21:49:42.775Z,13.57
2022-11-13T21:52:28.559Z,12.45
2022-11-13T21:55:14.142Z,11.75
2022-11-13T21:57:59.620Z,12.80
2022-11-13T22:00:45.390Z,18.17
2022-11-13T22:03:31.458Z,14.02
2022-11-13T22:06:16.963Z,15.00
2022-11-13T22:09:05.801Z,14.50
2022-11-13T22:11:51.571Z,13.98
2022-11-13T22:14:37.437Z,13.38
2022-11-13T22:17:23.203Z,13.50
2022-11-13T22:20:09.414Z,13.32
2022-11-13T22:22:54.908Z,12.50
2022-11-13T22:25:40.579Z,12.80
2022-11-13T22:28:25.770Z,12.40
2022-11-13T22:31:28.363Z,12.20
2022-11-13T22:34:14.173Z,13.50
2022-11-13T22:36:59.863Z,13.07
2022-11-13T22:39:45.749Z,12.68
2022-11-13T22:42:31.350Z,13.18
2022-11-13T22:45:23.828Z,13.20
2022-11-13T22:48:11.560Z,12.48
2022-11-13T22:51:16.033Z,13.00
2022-11-13T22:54:04.719Z,13.88
2022-11-13T22:56:50.083Z,13.82
2022-11-13T22:59:35.357Z,16.92
2022-11-13T23:02:21.114Z,18.50
2022-11-13T23:05:07.741Z,14.65
2022-11-13T23:07:53.444Z,12.65
2022-11-13T23:10:38.663Z,12.50
2022-11-13T23:13:25.279Z,13.40
2022-11-13T23:16:11.846Z,12.82
2022-11-13T23:18:58.727Z,13.93
2022-11-13T23:21:46.263Z,15.00
2022-11-13T23:24:31.934Z,13.57
2022-11-13T23:27:17.587Z,12.52
2022-11-13T23:30:03.415Z,12.77
2022-11-13T23:32:48.789Z,13.30
2022-11-13T23:35:34.530Z,13.18
2022-11-13T23:38:20.665Z,12.85
2022-11-13T23:41:06.930Z,12.02
2022-11-13T23:44:09.604Z,11.70
2022-11-13T23:46:56.186Z,12.68
2022-11-13T23:49:41.725Z,12.25
2022-11-13T23:52:27.596Z,11.30
2022-11-13T23:55:12.996Z,13.38
2022-11-13T23:58:00.063Z,14.02
